createdAt,value
2019-01-17T00:02:26.008Z,2.96
2019-01-17T00:04:55.502Z,3.12
2019-01-17T00:07:32.918Z,3.02
2019-01-17T00:10:07.167Z,2.95
2019-01-17T00:12:38.139Z,2.83
2019-01-17T00:15:26.583Z,2.79
2019-01-17T00:18:03.498Z,2.76
2019-01-17T00:20:37.001Z,2.80
2019-01-17T00:23:06.127Z,2.80
2019-01-17T00:25:55.573Z,2.90
2019-01-17T00:28:42.866Z,3.03
2019-01-17T00:31:16.747Z,2.89
2019-01-17T00:34:03.985Z,2.77
2019-01-17T00:36:34.984Z,2.71
2019-01-17T00:39:11.695Z,2.68
2019-01-17T00:41:51.546Z,2.63
2019-01-17T00:44:41.125Z,2.59
2019-01-17T00:47:12.371Z,2.50
2019-01-17T00:49:49.279Z,2.58
2019-01-17T00:52:20.247Z,2.56
2019-01-17T00:54:51.603Z,2.64
2019-01-17T00:57:28.071Z,2.72
2019-01-17T01:00:05.019Z,2.76
2019-01-17T01:02:36.004Z,2.78
2019-01-17T01:05:23.597Z,2.73
2019-01-17T01:08:10.981Z,2.60
2019-01-17T01:10:41.975Z,2.79
2019-01-17T01:13:18.613Z,2.81
2019-01-17T01:15:54.492Z,2.94
2019-01-17T01:18:25.448Z,2.85
2019-01-17T01:21:14.539Z,2.89
2019-01-17T01:23:45.760Z,3.02
2019-01-17T01:26:32.916Z,3.06
2019-01-17T01:29:17.412Z,3.08
2019-01-17T01:31:56.892Z,3.21
2019-01-17T01:34:30.760Z,3.45
2019-01-17T01:37:04.609Z,3.50
2019-01-17T01:39:44.618Z,3.36
2019-01-17T01:42:19.346Z,3.35
2019-01-17T01:44:56.842Z,3.36
2019-01-17T01:47:45.534Z,3.45
2019-01-17T01:50:22.025Z,3.43
2019-01-17T01:53:05.765Z,3.39
2019-01-17T01:55:35.114Z,3.49
2019-01-17T01:58:04.819Z,3.47
2019-01-17T02:00:34.126Z,3.56
2019-01-17T02:03:03.459Z,3.65
2019-01-17T02:05:32.826Z,3.72
2019-01-17T02:08:02.151Z,3.73
2019-01-17T02:10:31.512Z,3.73
2019-01-17T02:13:01.343Z,3.86
2019-01-17T02:15:31.059Z,4.07
2019-01-17T02:18:00.745Z,4.21
2019-01-17T02:20:30.355Z,4.51
2019-01-17T02:22:59.714Z,4.69
2019-01-17T02:25:29.353Z,4.84
2019-01-17T02:28:18.143Z,5.09
2019-01-17T02:30:47.523Z,5.51
2019-01-17T02:33:16.852Z,5.69
2019-01-17T02:35:46.209Z,5.76
2019-01-17T02:38:15.540Z,5.84
2019-01-17T02:40:44.863Z,6.13
2019-01-17T02:43:14.510Z,6.20
2019-01-17T02:45:44.252Z,6.25
2019-01-17T02:48:13.548Z,6.29
2019-01-17T02:50:43.154Z,6.29
2019-01-17T02:53:12.491Z,6.36
2019-01-17T02:55:41.827Z,6.36
2019-01-17T02:58:11.137Z,6.41
2019-01-17T03:00:40.744Z,6.48
2019-01-17T03:03:10.071Z,6.48
2019-01-17T03:05:39.382Z,6.51
2019-01-17T03:08:08.712Z,6.50
2019-01-17T03:10:38.350Z,6.53
2019-01-17T03:13:07.651Z,6.58
2019-01-17T03:15:37.022Z,6.66
2019-01-17T03:18:06.363Z,6.63
2019-01-17T03:20:36.083Z,6.56
2019-01-17T03:23:05.439Z,6.63
2019-01-17T03:25:34.755Z,6.59
2019-01-17T03:28:04.094Z,6.60
2019-01-17T03:30:33.449Z,6.58
2019-01-17T03:33:02.756Z,6.62
2019-01-17T03:35:32.084Z,6.71
2019-01-17T03:38:01.434Z,6.68
2019-01-17T03:40:31.082Z,6.70
2019-01-17T03:43:00.671Z,6.70
2019-01-17T03:45:30.374Z,6.67
2019-01-17T03:47:59.978Z,6.67
2019-01-17T03:50:29.285Z,6.59
2019-01-17T03:52:58.901Z,6.69
2019-01-17T03:55:28.705Z,6.70
2019-01-17T03:57:58.454Z,6.68
2019-01-17T04:00:28.122Z,6.63
2019-01-17T04:02:57.467Z,6.65
2019-01-17T04:05:26.796Z,6.67
2019-01-17T04:07:56.112Z,6.67
2019-01-17T04:10:25.837Z,6.64
2019-01-17T04:12:55.194Z,6.58
2019-01-17T04:15:24.847Z,6.57
2019-01-17T04:17:54.758Z,6.58
2019-01-17T04:20:24.672Z,6.55
2019-01-17T04:22:54.051Z,6.52
2019-01-17T04:25:23.682Z,6.51
2019-01-17T04:27:53.002Z,6.55
2019-01-17T04:30:22.356Z,6.50
2019-01-17T04:32:51.688Z,6.55
2019-01-17T04:35:21.013Z,6.53
2019-01-17T04:37:50.397Z,6.50
2019-01-17T04:40:19.729Z,6.48
2019-01-17T04:42:49.032Z,6.50
2019-01-17T04:45:18.459Z,6.53
2019-01-17T04:47:47.797Z,6.56
2019-01-17T04:50:17.296Z,6.58
2019-01-17T04:52:46.607Z,6.56
2019-01-17T04:55:15.942Z,6.52
2019-01-17T04:57:45.593Z,6.59
2019-01-17T05:00:20.568Z,6.61
2019-01-17T05:02:49.885Z,6.60
2019-01-17T05:05:19.235Z,6.63
2019-01-17T05:07:48.574Z,6.65
2019-01-17T05:10:21.414Z,6.60
2019-01-17T05:12:51.009Z,6.59
2019-01-17T05:15:20.673Z,6.61
2019-01-17T05:17:50.059Z,6.67
2019-01-17T05:20:19.775Z,6.65
2019-01-17T05:22:49.654Z,6.63
2019-01-17T05:25:19.066Z,6.65
2019-01-17T05:27:48.460Z,6.68
2019-01-17T05:30:19.315Z,6.60
2019-01-17T05:32:48.693Z,6.67
2019-01-17T05:35:18.020Z,6.74
2019-01-17T05:37:47.696Z,6.72
2019-01-17T05:40:19.437Z,6.74
2019-01-17T05:42:48.782Z,6.74
2019-01-17T05:45:18.121Z,6.64
2019-01-17T05:47:47.404Z,6.78
2019-01-17T05:50:18.710Z,6.90
2019-01-17T05:52:48.010Z,6.84
2019-01-17T05:55:20.089Z,6.93
2019-01-17T05:57:48.839Z,6.92
2019-01-17T06:00:20.640Z,6.84
2019-01-17T06:02:50.063Z,6.85
2019-01-17T06:05:19.405Z,6.86
2019-01-17T06:07:48.698Z,6.83
2019-01-17T06:10:18.035Z,6.76
2019-01-17T06:12:47.404Z,6.73
2019-01-17T06:15:18.640Z,6.73
2019-01-17T06:17:47.982Z,6.78
2019-01-17T06:20:18.151Z,6.68
2019-01-17T06:22:47.774Z,6.71
2019-01-17T06:25:17.096Z,6.65
2019-01-17T06:27:46.412Z,6.73
2019-01-17T06:30:16.591Z,6.74
2019-01-17T06:32:45.917Z,6.80
2019-01-17T06:35:15.346Z,6.75
2019-01-17T06:37:45.003Z,6.74
2019-01-17T06:40:29.495Z,6.76
2019-01-17T06:42:58.859Z,6.81
2019-01-17T06:45:28.460Z,6.81
2019-01-17T06:47:57.770Z,6.85
2019-01-17T06:50:27.368Z,6.81
2019-01-17T06:52:57.068Z,6.90
2019-01-17T06:55:26.694Z,6.79
2019-01-17T06:57:56.019Z,6.80
2019-01-17T07:00:25.361Z,6.78
2019-01-17T07:02:54.661Z,6.83
2019-01-17T07:05:24.064Z,6.79
2019-01-17T07:07:53.718Z,6.85
2019-01-17T07:10:23.499Z,7.04
2019-01-17T07:12:53.111Z,7.00
2019-01-17T07:15:22.727Z,6.90
2019-01-17T07:17:52.041Z,6.92
2019-01-17T07:20:21.399Z,7.01
2019-01-17T07:22:51.082Z,6.97
2019-01-17T07:25:20.745Z,6.95
2019-01-17T07:27:50.435Z,6.86
2019-01-17T07:30:23.338Z,6.82
2019-01-17T07:32:52.946Z,6.86
2019-01-17T07:35:22.479Z,6.84
2019-01-17T07:37:51.863Z,6.86
2019-01-17T07:40:21.898Z,6.86
2019-01-17T07:42:51.202Z,6.84
2019-01-17T07:45:26.923Z,6.88
2019-01-17T07:47:56.240Z,6.88
2019-01-17T07:50:25.856Z,6.90
2019-01-17T07:52:55.469Z,6.97
2019-01-17T07:55:25.088Z,6.88
2019-01-17T07:57:54.784Z,6.98
2019-01-17T08:00:25.181Z,6.90
2019-01-17T08:02:54.525Z,6.93
2019-01-17T08:05:24.235Z,6.84
2019-01-17T08:07:53.867Z,6.91
2019-01-17T08:10:23.259Z,6.91
2019-01-17T08:12:52.953Z,6.92
2019-01-17T08:15:22.306Z,6.99
2019-01-17T08:17:51.947Z,7.09
2019-01-17T08:20:25.112Z,7.11
2019-01-17T08:22:54.433Z,6.99
2019-01-17T08:25:24.046Z,6.99
2019-01-17T08:27:53.800Z,7.08
2019-01-17T08:30:26.467Z,7.11
2019-01-17T08:32:55.787Z,7.11
2019-01-17T08:35:25.111Z,7.00
2019-01-17T08:37:54.787Z,6.90
2019-01-17T08:40:28.342Z,7.03
2019-01-17T08:42:59.539Z,7.11
2019-01-17T08:45:29.185Z,7.06
2019-01-17T08:47:58.799Z,7.08
2019-01-17T08:50:28.195Z,7.01
2019-01-17T08:52:57.493Z,7.00
2019-01-17T08:55:27.096Z,6.96
2019-01-17T08:57:56.700Z,7.05
2019-01-17T09:00:27.504Z,7.08
2019-01-17T09:02:57.146Z,7.11
2019-01-17T09:05:26.752Z,7.05
2019-01-17T09:07:56.058Z,7.03
2019-01-17T09:10:28.740Z,7.13
2019-01-17T09:12:58.450Z,7.20
2019-01-17T09:15:33.392Z,7.10
2019-01-17T09:18:02.701Z,7.13
2019-01-17T09:20:32.012Z,7.25
2019-01-17T09:23:01.347Z,7.27
2019-01-17T09:25:31.002Z,7.29
2019-01-17T09:28:00.691Z,7.29
2019-01-17T09:30:30.281Z,7.24
2019-01-17T09:32:59.862Z,7.23
2019-01-17T09:35:29.521Z,7.31
2019-01-17T09:37:59.108Z,7.33
2019-01-17T09:40:28.720Z,7.40
2019-01-17T09:42:58.302Z,7.45
2019-01-17T09:45:27.624Z,7.24
2019-01-17T09:47:57.251Z,7.26
2019-01-17T09:50:26.997Z,7.33
2019-01-17T09:52:56.572Z,7.46
2019-01-17T09:55:25.944Z,7.37
2019-01-17T09:57:55.275Z,7.28
2019-01-17T10:00:29.363Z,7.27
2019-01-17T10:02:58.713Z,7.27
2019-01-17T10:05:28.312Z,7.35
2019-01-17T10:07:57.885Z,7.35
2019-01-17T10:10:27.389Z,7.41
2019-01-17T10:12:57.242Z,7.27
2019-01-17T10:15:37.800Z,7.41
2019-01-17T10:18:21.123Z,7.39
2019-01-17T10:21:28.089Z,7.30
2019-01-17T10:24:13.849Z,7.34
2019-01-17T10:26:59.359Z,7.33
2019-01-17T10:29:41.990Z,7.28
2019-01-17T10:32:34.125Z,7.32
2019-01-17T10:35:20.166Z,7.29
2019-01-17T10:38:18.138Z,7.19
2019-01-17T10:41:10.586Z,7.33
2019-01-17T10:43:59.428Z,7.44
2019-01-17T10:46:45.452Z,7.48
2019-01-17T10:49:53.726Z,7.65
2019-01-17T10:53:00.790Z,7.52
2019-01-17T10:55:43.937Z,7.43
2019-01-17T10:58:27.227Z,7.42
2019-01-17T11:01:16.203Z,7.40
2019-01-17T11:04:38.590Z,7.42
2019-01-17T11:07:36.204Z,7.35
2019-01-17T11:10:47.495Z,7.51
2019-01-17T11:13:52.720Z,7.56
2019-01-17T11:16:41.708Z,7.67
2019-01-17T11:19:33.895Z,7.57
2019-01-17T11:22:25.187Z,7.69
2019-01-17T11:25:24.804Z,7.76
2019-01-17T11:28:24.235Z,7.85
2019-01-17T11:31:20.537Z,8.11
2019-01-17T11:34:15.510Z,8.11
2019-01-17T11:37:19.538Z,8.23
2019-01-17T11:40:23.645Z,8.33
2019-01-17T11:43:18.837Z,8.23
2019-01-17T11:46:01.570Z,8.40
2019-01-17T11:48:51.061Z,8.35
2019-01-17T11:51:34.515Z,8.28
2019-01-17T11:54:08.718Z,8.13
2019-01-17T11:57:00.975Z,8.08
2019-01-17T11:59:41.315Z,8.20
2019-01-17T12:02:39.274Z,8.23
2019-01-17T12:05:07.474Z,8.41
2019-01-17T12:07:36.797Z,8.25
2019-01-17T12:10:07.901Z,8.30
2019-01-17T12:12:37.357Z,8.42
2019-01-17T12:15:09.186Z,8.43
2019-01-17T12:17:38.776Z,8.29
2019-01-17T12:20:09.318Z,8.46
2019-01-17T12:22:38.943Z,8.12
2019-01-17T12:25:08.555Z,8.01
2019-01-17T12:27:42.563Z,8.08
2019-01-17T12:30:12.698Z,7.95
2019-01-17T12:32:42.027Z,8.00
2019-01-17T12:35:12.016Z,8.11
2019-01-17T12:37:41.364Z,8.23
2019-01-17T12:40:12.765Z,8.21
2019-01-17T12:42:42.404Z,8.09
2019-01-17T12:45:11.746Z,7.85
2019-01-17T12:47:41.063Z,7.83
2019-01-17T12:50:15.051Z,7.80
2019-01-17T12:52:44.414Z,7.82
2019-01-17T12:55:13.802Z,7.98
2019-01-17T12:57:43.427Z,8.10
2019-01-17T13:00:16.963Z,8.14
2019-01-17T13:02:46.295Z,8.22
2019-01-17T13:05:16.066Z,8.24
2019-01-17T13:07:45.734Z,8.29
2019-01-17T13:10:15.732Z,8.40
2019-01-17T13:12:45.056Z,8.28
2019-01-17T13:15:14.391Z,8.05
2019-01-17T13:17:46.593Z,8.11
2019-01-17T13:20:16.899Z,8.16
2019-01-17T13:22:46.486Z,8.10
2019-01-17T13:25:18.692Z,8.06
2019-01-17T13:27:48.123Z,8.19
2019-01-17T13:30:22.772Z,8.19
2019-01-17T13:32:52.373Z,8.17
2019-01-17T13:35:21.952Z,8.09
2019-01-17T13:37:51.539Z,8.01
2019-01-17T13:40:22.285Z,8.05
2019-01-17T13:42:51.863Z,7.80
2019-01-17T13:45:21.813Z,7.92
2019-01-17T13:47:51.412Z,8.00
2019-01-17T13:50:21.022Z,7.94
2019-01-17T13:52:50.675Z,7.84
2019-01-17T13:55:21.623Z,7.75
2019-01-17T13:57:51.016Z,7.77
2019-01-17T14:00:25.527Z,7.85
2019-01-17T14:02:54.927Z,8.03
2019-01-17T14:05:24.277Z,8.04
2019-01-17T14:07:53.990Z,7.97
2019-01-17T14:10:24.161Z,8.04
2019-01-17T14:12:54.226Z,8.25
2019-01-17T14:15:27.917Z,8.41
2019-01-17T14:17:59.047Z,8.51
2019-01-17T14:20:28.645Z,8.65
2019-01-17T14:22:58.905Z,8.41
2019-01-17T14:25:30.047Z,8.18
2019-01-17T14:28:01.153Z,8.30
2019-01-17T14:30:34.787Z,8.22
2019-01-17T14:33:04.146Z,8.17
2019-01-17T14:35:33.630Z,8.32
2019-01-17T14:38:03.275Z,8.13
2019-01-17T14:40:32.665Z,8.11
2019-01-17T14:43:02.570Z,8.01
2019-01-17T14:45:32.245Z,7.90
2019-01-17T14:48:02.506Z,7.81
2019-01-17T14:50:32.861Z,7.73
2019-01-17T14:53:02.192Z,7.82
2019-01-17T14:55:31.574Z,7.73
2019-01-17T14:58:00.886Z,7.83
2019-01-17T15:00:32.548Z,7.83
2019-01-17T15:03:02.172Z,7.85
2019-01-17T15:05:31.776Z,7.53
2019-01-17T15:08:01.338Z,7.45
2019-01-17T15:10:35.359Z,7.46
2019-01-17T15:13:04.763Z,7.33
2019-01-17T15:15:34.416Z,7.32
2019-01-17T15:18:03.934Z,7.25
2019-01-17T15:20:33.555Z,7.25
2019-01-17T15:23:03.336Z,7.19
2019-01-17T15:25:33.007Z,7.10
2019-01-17T15:28:02.587Z,7.05
2019-01-17T15:30:32.185Z,7.04
2019-01-17T15:33:01.565Z,6.99
2019-01-17T15:35:30.890Z,6.90
2019-01-17T15:38:00.460Z,6.96
2019-01-17T15:40:31.242Z,6.92
2019-01-17T15:43:00.864Z,6.82
2019-01-17T15:45:30.189Z,6.81
2019-01-17T15:47:59.606Z,6.81
2019-01-17T15:50:29.018Z,6.74
2019-01-17T15:52:58.360Z,6.80
2019-01-17T15:55:28.242Z,6.73
2019-01-17T15:57:57.591Z,6.68
2019-01-17T16:00:29.890Z,6.72
2019-01-17T16:02:59.269Z,6.64
2019-01-17T16:05:28.591Z,6.60
2019-01-17T16:07:57.919Z,6.67
2019-01-17T16:10:27.368Z,6.64
2019-01-17T16:12:56.680Z,6.68
2019-01-17T16:15:26.671Z,6.75
2019-01-17T16:17:55.983Z,6.78
2019-01-17T16:20:25.581Z,6.73
2019-01-17T16:22:54.917Z,6.71
2019-01-17T16:25:24.247Z,6.69
2019-01-17T16:27:53.598Z,6.60
2019-01-17T16:30:29.520Z,6.64
2019-01-17T16:32:59.080Z,6.61
2019-01-17T16:35:28.682Z,6.60
2019-01-17T16:37:58.006Z,6.63
2019-01-17T16:40:27.307Z,6.61
2019-01-17T16:42:56.619Z,6.56
2019-01-17T16:45:26.212Z,6.54
2019-01-17T16:47:55.793Z,6.50
2019-01-17T16:50:26.125Z,6.57
2019-01-17T16:52:55.463Z,6.52
2019-01-17T16:55:25.076Z,6.58
2019-01-17T16:57:54.766Z,6.47
2019-01-17T17:00:37.548Z,6.45
2019-01-17T17:03:06.883Z,6.43
2019-01-17T17:05:36.186Z,6.45
2019-01-17T17:08:05.524Z,6.52
2019-01-17T17:10:35.127Z,6.47
2019-01-17T17:13:04.455Z,6.49
2019-01-17T17:15:34.037Z,6.52
2019-01-17T17:18:03.416Z,6.47
2019-01-17T17:20:32.764Z,6.47
2019-01-17T17:23:02.347Z,6.44
2019-01-17T17:25:31.962Z,6.45
2019-01-17T17:28:01.585Z,6.41
2019-01-17T17:30:30.862Z,6.40
2019-01-17T17:33:00.492Z,6.34
2019-01-17T17:35:29.847Z,6.32
2019-01-17T17:37:59.161Z,6.33
2019-01-17T17:40:29.834Z,6.34
2019-01-17T17:42:59.174Z,6.36
2019-01-17T17:45:28.537Z,6.40
2019-01-17T17:47:57.905Z,6.52
2019-01-17T17:50:27.461Z,6.47
2019-01-17T17:52:56.824Z,6.48
2019-01-17T17:55:26.505Z,6.47
2019-01-17T17:58:01.936Z,6.39
2019-01-17T18:00:44.824Z,6.37
2019-01-17T18:03:14.149Z,6.41
2019-01-17T18:05:43.504Z,6.03
2019-01-17T18:08:12.817Z,6.35
2019-01-17T18:10:42.233Z,6.33
2019-01-17T18:13:11.810Z,6.30
2019-01-17T18:15:41.139Z,6.29
2019-01-17T18:18:10.443Z,6.24
2019-01-17T18:20:40.590Z,6.27
2019-01-17T18:23:10.203Z,6.24
2019-01-17T18:25:39.520Z,6.25
2019-01-17T18:28:09.108Z,6.29
2019-01-17T18:30:38.403Z,6.27
2019-01-17T18:33:09.656Z,6.29
2019-01-17T18:35:44.750Z,6.26
2019-01-17T18:38:18.519Z,6.22
2019-01-17T18:40:51.242Z,6.31
2019-01-17T18:43:26.391Z,6.29
2019-01-17T18:46:04.738Z,6.29
2019-01-17T18:48:48.751Z,6.33
2019-01-17T18:51:20.894Z,6.30
2019-01-17T18:53:50.241Z,6.33
2019-01-17T18:56:19.616Z,6.34
2019-01-17T18:58:48.962Z,6.38
2019-01-17T19:01:18.304Z,6.36
2019-01-17T19:03:47.959Z,6.35
2019-01-17T19:06:17.562Z,6.41
2019-01-17T19:08:47.177Z,6.43
2019-01-17T19:11:16.828Z,6.39
2019-01-17T19:13:46.172Z,6.44
2019-01-17T19:16:26.931Z,6.45
2019-01-17T19:19:03.004Z,6.19
2019-01-17T19:21:52.536Z,5.67
2019-01-17T19:24:26.603Z,5.31
2019-01-17T19:27:00.258Z,5.08
2019-01-17T19:29:48.182Z,4.96
2019-01-17T19:32:22.173Z,4.80
2019-01-17T19:34:51.537Z,4.81
2019-01-17T19:37:21.128Z,4.77
2019-01-17T19:39:52.497Z,4.77
2019-01-17T19:42:24.576Z,4.72
2019-01-17T19:44:55.287Z,4.66
2019-01-17T19:47:24.953Z,4.57
2019-01-17T19:49:54.672Z,4.52
2019-01-17T19:52:24.434Z,4.55
2019-01-17T19:54:54.114Z,4.61
2019-01-17T19:57:23.523Z,4.47
2019-01-17T19:59:53.213Z,4.44
2019-01-17T20:02:23.280Z,4.37
2019-01-17T20:04:53.191Z,4.40
2019-01-17T20:07:22.523Z,4.45
2019-01-17T20:09:51.902Z,4.50
2019-01-17T20:12:21.355Z,4.53
2019-01-17T20:14:51.025Z,4.43
2019-01-17T20:17:20.645Z,4.45
2019-01-17T20:19:50.261Z,4.40
2019-01-17T20:22:19.987Z,4.42
2019-01-17T20:24:49.646Z,4.33
2019-01-17T20:27:18.965Z,4.32
2019-01-17T20:29:48.538Z,4.40
2019-01-17T20:32:18.855Z,4.25
2019-01-17T20:34:48.292Z,4.43
2019-01-17T20:37:17.896Z,4.48
2019-01-17T20:39:47.291Z,4.28
2019-01-17T20:42:16.694Z,4.28
2019-01-17T20:44:46.334Z,4.30
2019-01-17T20:47:19.094Z,4.33
2019-01-17T20:49:58.157Z,4.36
2019-01-17T20:52:29.291Z,4.37
2019-01-17T20:55:07.535Z,4.31
2019-01-17T20:57:45.389Z,4.33
2019-01-17T21:00:33.825Z,4.20
2019-01-17T21:03:05.881Z,4.30
2019-01-17T21:05:35.534Z,4.39
2019-01-17T21:08:04.957Z,4.34
2019-01-17T21:10:34.623Z,4.24
2019-01-17T21:13:04.344Z,3.89
2019-01-17T21:15:33.977Z,4.31
2019-01-17T21:18:03.620Z,4.18
2019-01-17T21:20:33.242Z,4.16
2019-01-17T21:23:03.059Z,4.20
2019-01-17T21:25:32.402Z,4.19
2019-01-17T21:28:02.094Z,4.27
2019-01-17T21:30:31.427Z,4.20
2019-01-17T21:33:06.545Z,4.13
2019-01-17T21:35:31.876Z,4.12
2019-01-17T21:38:01.229Z,4.09
2019-01-17T21:40:30.936Z,4.09
2019-01-17T21:43:00.626Z,3.96
2019-01-17T21:45:30.253Z,3.95
2019-01-17T21:47:59.627Z,3.95
2019-01-17T21:50:34.005Z,3.86
2019-01-17T21:53:03.350Z,3.94
2019-01-17T21:55:32.972Z,3.94
2019-01-17T21:58:02.331Z,3.89
2019-01-17T22:00:31.955Z,3.80
2019-01-17T22:03:01.305Z,3.74
2019-01-17T22:05:30.879Z,3.65
2019-01-17T22:08:00.473Z,3.66
2019-01-17T22:10:29.822Z,3.65
2019-01-17T22:12:59.517Z,3.58
2019-01-17T22:15:29.481Z,3.36
2019-01-17T22:17:59.386Z,3.53
2019-01-17T22:20:29.195Z,3.47
2019-01-17T22:22:58.898Z,3.50
2019-01-17T22:25:28.247Z,3.50
2019-01-17T22:27:57.890Z,3.53
2019-01-17T22:30:31.184Z,3.51
2019-01-17T22:33:00.557Z,3.51
2019-01-17T22:35:30.124Z,3.46
2019-01-17T22:37:59.432Z,3.51
2019-01-17T22:40:29.005Z,3.55
2019-01-17T22:42:58.311Z,3.57
2019-01-17T22:45:31.705Z,3.55
2019-01-17T22:48:01.079Z,3.56
2019-01-17T22:50:30.965Z,3.62
2019-01-17T22:53:00.584Z,3.57
2019-01-17T22:55:30.178Z,3.52
2019-01-17T22:57:59.528Z,3.59
2019-01-17T23:00:52.608Z,3.61
2019-01-17T23:03:29.695Z,3.55
2019-01-17T23:05:59.063Z,3.63
2019-01-17T23:08:28.776Z,3.59
2019-01-17T23:10:58.105Z,3.55
2019-01-17T23:13:27.623Z,3.51
2019-01-17T23:15:56.976Z,3.59
2019-01-17T23:18:26.319Z,3.60
2019-01-17T23:20:55.706Z,3.52
2019-01-17T23:23:25.015Z,3.49
2019-01-17T23:25:54.607Z,3.50
2019-01-17T23:28:23.948Z,3.44
2019-01-17T23:30:53.544Z,3.38
2019-01-17T23:33:22.848Z,3.33
2019-01-17T23:35:52.461Z,3.38
2019-01-17T23:38:21.752Z,3.35
2019-01-17T23:40:51.351Z,3.29
2019-01-17T23:43:20.931Z,3.35
2019-01-17T23:45:50.560Z,3.37
2019-01-17T23:48:20.138Z,3.32
2019-01-17T23:50:49.747Z,3.30
2019-01-17T23:53:19.050Z,3.32
2019-01-17T23:55:48.756Z,3.30
2019-01-17T23:58:18.090Z,3.22
